Ebarb, Louisiana
Current Conditions -  °F | °C
As of 11:56 AM on Thursday 18 Dec 2014 (Local Time) from KAQV Reporting Station
Overcast Overcast  
Wind Chill: 52°   Ceiling: 1200
Heat Index: 52°   Visibility: 9mi
Dew Point: 49°   Wind: 3mph
Humidity: 89%   Direction: NA
Pressure: 30.12"   Gusts: NA
Location:  31.6945°N, 93.716°W
Report Text: KAQV 181756Z AUTO VRB03KT 9SM SCT006 BKN012 OVC017 11/09 A3012 RMK AO2 SLP201 60014 T01110094 10111 20094 58010
Loading
Personal Weather Stations






























Interactive Weather Map New forecast layout! Learn more

10-Day Weather Forecast

Advertisements
Track Severe Weather on mobile